sensor_id;sensor_type;location;lat;lon;timestamp;pressure;altitude;pressure_sealevel;temperature
42673;BMP280;28284;46.514;30.724;2023-05-07T00:00:20;101278.63;;;11.69
42673;BMP280;28284;46.514;30.724;2023-05-07T00:02:46;101275.78;;;11.62
42673;BMP280;28284;46.514;30.724;2023-05-07T00:05:11;101287.09;;;11.68
42673;BMP280;28284;46.514;30.724;2023-05-07T00:07:36;101296.78;;;11.65
42673;BMP280;28284;46.514;30.724;2023-05-07T00:10:02;101283.56;;;11.64
42673;BMP280;28284;46.514;30.724;2023-05-07T00:12:27;101291.28;;;11.62
42673;BMP280;28284;46.514;30.724;2023-05-07T00:14:55;101288.94;;;11.60
42673;BMP280;28284;46.514;30.724;2023-05-07T00:17:20;101297.00;;;11.57
42673;BMP280;28284;46.514;30.724;2023-05-07T00:19:45;101293.47;;;11.53
42673;BMP280;28284;46.514;30.724;2023-05-07T00:22:11;101286.06;;;11.50
42673;BMP280;28284;46.514;30.724;2023-05-07T00:24:36;101277.13;;;11.50
42673;BMP280;28284;46.514;30.724;2023-05-07T00:27:02;101270.50;;;11.47
42673;BMP280;28284;46.514;30.724;2023-05-07T00:29:27;101292.91;;;11.44
42673;BMP280;28284;46.514;30.724;2023-05-07T00:31:52;101292.78;;;11.37
42673;BMP280;28284;46.514;30.724;2023-05-07T00:34:19;101281.09;;;11.33
42673;BMP280;28284;46.514;30.724;2023-05-07T00:36:45;101278.34;;;11.30
42673;BMP280;28284;46.514;30.724;2023-05-07T00:39:10;101275.56;;;11.26
42673;BMP280;28284;46.514;30.724;2023-05-07T00:41:36;101268.16;;;11.23
42673;BMP280;28284;46.514;30.724;2023-05-07T00:44:01;101285.91;;;11.21
42673;BMP280;28284;46.514;30.724;2023-05-07T00:46:27;101275.78;;;11.18
42673;BMP280;28284;46.514;30.724;2023-05-07T00:48:53;101276.09;;;11.13
42673;BMP280;28284;46.514;30.724;2023-05-07T00:51:19;101289.19;;;11.11
42673;BMP280;28284;46.514;30.724;2023-05-07T00:53:45;101287.94;;;11.05
42673;BMP280;28284;46.514;30.724;2023-05-07T00:56:10;101273.97;;;11.03
42673;BMP280;28284;46.514;30.724;2023-05-07T00:58:36;101275.84;;;10.99
42673;BMP280;28284;46.514;30.724;2023-05-07T01:01:01;101283.09;;;10.95
42673;BMP280;28284;46.514;30.724;2023-05-07T01:03:27;101283.03;;;10.91
42673;BMP280;28284;46.514;30.724;2023-05-07T01:05:52;101290.31;;;10.87
42673;BMP280;28284;46.514;30.724;2023-05-07T01:08:18;101272.06;;;10.84
42673;BMP280;28284;46.514;30.724;2023-05-07T01:10:43;101275.47;;;10.81
42673;BMP280;28284;46.514;30.724;2023-05-07T01:13:09;101281.63;;;10.78
42673;BMP280;28284;46.514;30.724;2023-05-07T01:15:35;101283.13;;;10.76
42673;BMP280;28284;46.514;30.724;2023-05-07T01:18:01;101294.31;;;10.74
42673;BMP280;28284;46.514;30.724;2023-05-07T01:20:26;101283.81;;;10.73
42673;BMP280;28284;46.514;30.724;2023-05-07T01:22:52;101293.50;;;10.74
42673;BMP280;28284;46.514;30.724;2023-05-07T01:25:18;101280.31;;;10.72
42673;BMP280;28284;46.514;30.724;2023-05-07T01:27:43;101286.53;;;10.73
42673;BMP280;28284;46.514;30.724;2023-05-07T01:30:08;101293.84;;;10.72
42673;BMP280;28284;46.514;30.724;2023-05-07T01:32:49;101275.34;;;10.74
42673;BMP280;28284;46.514;30.724;2023-05-07T01:35:19;101281.88;;;10.73
42673;BMP280;28284;46.514;30.724;2023-05-07T01:37:47;101271.03;;;10.73
42673;BMP280;28284;46.514;30.724;2023-05-07T01:40:13;101272.97;;;10.73
42673;BMP280;28284;46.514;30.724;2023-05-07T01:42:38;101284.16;;;10.71
42673;BMP280;28284;46.514;30.724;2023-05-07T01:45:04;101276.47;;;10.73
42673;BMP280;28284;46.514;30.724;2023-05-07T01:47:30;101272.19;;;10.72
42673;BMP280;28284;46.514;30.724;2023-05-07T01:49:56;101274.13;;;10.72
42673;BMP280;28284;46.514;30.724;2023-05-07T01:52:21;101276.47;;;10.73
42673;BMP280;28284;46.514;30.724;2023-05-07T01:54:47;101269.94;;;10.74
42673;BMP280;28284;46.514;30.724;2023-05-07T01:57:12;101280.41;;;10.76
42673;BMP280;28284;46.514;30.724;2023-05-07T01:59:37;101279.25;;;10.77
42673;BMP280;28284;46.514;30.724;2023-05-07T02:02:02;101285.53;;;10.81
42673;BMP280;28284;46.514;30.724;2023-05-07T02:04:28;101276.34;;;10.85
42673;BMP280;28284;46.514;30.724;2023-05-07T02:06:53;101279.91;;;10.89
42673;BMP280;28284;46.514;30.724;2023-05-07T02:09:18;101283.47;;;10.93
42673;BMP280;28284;46.514;30.724;2023-05-07T02:11:44;101271.13;;;10.96
42673;BMP280;28284;46.514;30.724;2023-05-07T02:14:09;101284.31;;;10.97
42673;BMP280;28284;46.514;30.724;2023-05-07T02:16:35;101290.94;;;11.00
42673;BMP280;28284;46.514;30.724;2023-05-07T02:19:00;101293.34;;;11.05
42673;BMP280;28284;46.514;30.724;2023-05-07T02:21:25;101287.56;;;11.06
42673;BMP280;28284;46.514;30.724;2023-05-07T02:23:51;101283.28;;;11.05
42673;BMP280;28284;46.514;30.724;2023-05-07T02:26:16;101284.84;;;11.06
42673;BMP280;28284;46.514;30.724;2023-05-07T02:28:41;101291.84;;;11.07
42673;BMP280;28284;46.514;30.724;2023-05-07T02:31:07;101289.13;;;11.07
42673;BMP280;28284;46.514;30.724;2023-05-07T02:33:32;101297.28;;;11.07
42673;BMP280;28284;46.514;30.724;2023-05-07T02:36:05;101294.56;;;11.07
42673;BMP280;28284;46.514;30.724;2023-05-07T02:38:30;101288.50;;;11.14
42673;BMP280;28284;46.514;30.724;2023-05-07T02:40:55;101288.69;;;11.24
42673;BMP280;28284;46.514;30.724;2023-05-07T02:43:21;101294.75;;;11.40
42673;BMP280;28284;46.514;30.724;2023-05-07T02:45:46;101309.22;;;11.66
42673;BMP280;28284;46.514;30.724;2023-05-07T02:48:11;101301.63;;;12.05
42673;BMP280;28284;46.514;30.724;2023-05-07T02:50:36;101301.44;;;12.46
42673;BMP280;28284;46.514;30.724;2023-05-07T02:53:02;101309.00;;;12.92
42673;BMP280;28284;46.514;30.724;2023-05-07T02:55:27;101303.97;;;13.34
42673;BMP280;28284;46.514;30.724;2023-05-07T02:57:52;101306.28;;;13.79
42673;BMP280;28284;46.514;30.724;2023-05-07T03:00:18;101315.22;;;14.43
42673;BMP280;28284;46.514;30.724;2023-05-07T03:02:44;101310.75;;;15.13
42673;BMP280;28284;46.514;30.724;2023-05-07T03:05:09;101313.88;;;15.71
42673;BMP280;28284;46.514;30.724;2023-05-07T03:07:36;101324.28;;;16.21
42673;BMP280;28284;46.514;30.724;2023-05-07T03:10:01;101338.00;;;16.85
42673;BMP280;28284;46.514;30.724;2023-05-07T03:12:26;101337.25;;;17.39
42673;BMP280;28284;46.514;30.724;2023-05-07T03:14:52;101340.50;;;18.08
42673;BMP280;28284;46.514;30.724;2023-05-07T03:17:17;101344.75;;;18.68
42673;BMP280;28284;46.514;30.724;2023-05-07T03:19:42;101351.38;;;19.23
42673;BMP280;28284;46.514;30.724;2023-05-07T03:22:08;101352.66;;;19.61
42673;BMP280;28284;46.514;30.724;2023-05-07T03:24:33;101354.19;;;20.04
42673;BMP280;28284;46.514;30.724;2023-05-07T03:26:58;101357.44;;;20.54
42673;BMP280;28284;46.514;30.724;2023-05-07T03:29:26;101362.41;;;20.94
42673;BMP280;28284;46.514;30.724;2023-05-07T03:31:51;101359.25;;;20.95
42673;BMP280;28284;46.514;30.724;2023-05-07T03:34:16;101360.06;;;21.24
42673;BMP280;28284;46.514;30.724;2023-05-07T03:36:47;101362.28;;;21.45
42673;BMP280;28284;46.514;30.724;2023-05-07T03:39:12;101365.34;;;21.19
42673;BMP280;28284;46.514;30.724;2023-05-07T03:41:37;101369.97;;;20.90
42673;BMP280;28284;46.514;30.724;2023-05-07T03:44:02;101370.06;;;20.86
42673;BMP280;28284;46.514;30.724;2023-05-07T03:46:28;101379.34;;;20.76
42673;BMP280;28284;46.514;30.724;2023-05-07T03:48:53;101373.94;;;20.73
42673;BMP280;28284;46.514;30.724;2023-05-07T03:51:18;101387.38;;;21.03
42673;BMP280;28284;46.514;30.724;2023-05-07T03:53:43;101377.13;;;21.19
42673;BMP280;28284;46.514;30.724;2023-05-07T03:56:09;101382.53;;;21.38
42673;BMP280;28284;46.514;30.724;2023-05-07T03:58:34;101381.22;;;21.87
42673;BMP280;28284;46.514;30.724;2023-05-07T04:00:59;101384.41;;;21.85
42673;BMP280;28284;46.514;30.724;2023-05-07T04:03:25;101386.91;;;22.08
42673;BMP280;28284;46.514;30.724;2023-05-07T04:05:50;101398.97;;;22.27
42673;BMP280;28284;46.514;30.724;2023-05-07T04:08:16;101398.31;;;22.10
42673;BMP280;28284;46.514;30.724;2023-05-07T04:10:41;101395.19;;;21.80
42673;BMP280;28284;46.514;30.724;2023-05-07T04:13:06;101388.66;;;21.46
42673;BMP280;28284;46.514;30.724;2023-05-07T04:15:32;101393.75;;;21.31
42673;BMP280;28284;46.514;30.724;2023-05-07T04:17:57;101388.72;;;21.58
42673;BMP280;28284;46.514;30.724;2023-05-07T04:20:22;101392.88;;;21.78
42673;BMP280;28284;46.514;30.724;2023-05-07T04:22:48;101398.34;;;21.94
42673;BMP280;28284;46.514;30.724;2023-05-07T04:25:13;101388.97;;;21.92
42673;BMP280;28284;46.514;30.724;2023-05-07T04:27:38;101382.88;;;21.84
42673;BMP280;28284;46.514;30.724;2023-05-07T04:30:04;101388.25;;;21.60
42673;BMP280;28284;46.514;30.724;2023-05-07T04:32:29;101380.72;;;21.48
42673;BMP280;28284;46.514;30.724;2023-05-07T04:34:55;101367.59;;;21.23
42673;BMP280;28284;46.514;30.724;2023-05-07T04:37:20;101378.34;;;21.18
42673;BMP280;28284;46.514;30.724;2023-05-07T04:39:46;101381.50;;;21.01
42673;BMP280;28284;46.514;30.724;2023-05-07T04:42:14;101372.22;;;20.95
42673;BMP280;28284;46.514;30.724;2023-05-07T04:44:39;101381.09;;;21.34
42673;BMP280;28284;46.514;30.724;2023-05-07T04:47:05;101379.91;;;21.91
42673;BMP280;28284;46.514;30.724;2023-05-07T04:49:30;101380.78;;;22.29
42673;BMP280;28284;46.514;30.724;2023-05-07T04:51:55;101382.69;;;22.44
42673;BMP280;28284;46.514;30.724;2023-05-07T04:54:21;101379.22;;;22.28
42673;BMP280;28284;46.514;30.724;2023-05-07T04:56:46;101388.38;;;22.25
42673;BMP280;28284;46.514;30.724;2023-05-07T04:59:11;101373.28;;;22.42
42673;BMP280;28284;46.514;30.724;2023-05-07T05:01:37;101399.13;;;22.60
42673;BMP280;28284;46.514;30.724;2023-05-07T05:04:02;101380.34;;;22.43
42673;BMP280;28284;46.514;30.724;2023-05-07T05:06:28;101383.16;;;22.55
42673;BMP280;28284;46.514;30.724;2023-05-07T05:08:54;101384.34;;;22.54
42673;BMP280;28284;46.514;30.724;2023-05-07T05:11:19;101386.97;;;22.45
42673;BMP280;28284;46.514;30.724;2023-05-07T05:13:44;101383.84;;;22.31
42673;BMP280;28284;46.514;30.724;2023-05-07T05:16:10;101392.94;;;22.32
42673;BMP280;28284;46.514;30.724;2023-05-07T05:18:35;101387.03;;;22.17
42673;BMP280;28284;46.514;30.724;2023-05-07T05:21:00;101371.38;;;22.27
42673;BMP280;28284;46.514;30.724;2023-05-07T05:23:26;101371.53;;;22.73
42673;BMP280;28284;46.514;30.724;2023-05-07T05:25:55;101370.53;;;22.67
42673;BMP280;28284;46.514;30.724;2023-05-07T05:28:20;101371.06;;;22.87
42673;BMP280;28284;46.514;30.724;2023-05-07T05:30:45;101368.16;;;23.02
42673;BMP280;28284;46.514;30.724;2023-05-07T05:33:11;101383.19;;;22.89
42673;BMP280;28284;46.514;30.724;2023-05-07T05:35:36;101379.81;;;22.60
42673;BMP280;28284;46.514;30.724;2023-05-07T05:38:01;101383.44;;;22.70
42673;BMP280;28284;46.514;30.724;2023-05-07T05:40:27;101384.34;;;22.67
42673;BMP280;28284;46.514;30.724;2023-05-07T05:42:52;101381.16;;;22.81
42673;BMP280;28284;46.514;30.724;2023-05-07T05:45:17;101379.44;;;23.08
42673;BMP280;28284;46.514;30.724;2023-05-07T05:47:43;101380.78;;;23.37
42673;BMP280;28284;46.514;30.724;2023-05-07T05:50:08;101388.34;;;24.01
42673;BMP280;28284;46.514;30.724;2023-05-07T05:52:34;101390.22;;;24.04
42673;BMP280;28284;46.514;30.724;2023-05-07T05:54:59;101379.84;;;23.95
42673;BMP280;28284;46.514;30.724;2023-05-07T05:57:24;101378.19;;;23.76
42673;BMP280;28284;46.514;30.724;2023-05-07T05:59:50;101373.56;;;23.73
42673;BMP280;28284;46.514;30.724;2023-05-07T06:02:16;101380.09;;;23.46
42673;BMP280;28284;46.514;30.724;2023-05-07T06:04:41;101381.59;;;23.25
42673;BMP280;28284;46.514;30.724;2023-05-07T06:07:07;101379.53;;;23.17
42673;BMP280;28284;46.514;30.724;2023-05-07T06:09:32;101375.50;;;23.30
42673;BMP280;28284;46.514;30.724;2023-05-07T06:11:58;101368.13;;;23.27
42673;BMP280;28284;46.514;30.724;2023-05-07T06:14:23;101376.16;;;23.34
42673;BMP280;28284;46.514;30.724;2023-05-07T06:16:48;101370.88;;;23.15
42673;BMP280;28284;46.514;30.724;2023-05-07T06:19:13;101364.34;;;22.88
42673;BMP280;28284;46.514;30.724;2023-05-07T06:21:39;101380.13;;;22.99
42673;BMP280;28284;46.514;30.724;2023-05-07T06:24:05;101370.28;;;22.98
42673;BMP280;28284;46.514;30.724;2023-05-07T06:26:30;101376.50;;;23.24
42673;BMP280;28284;46.514;30.724;2023-05-07T06:28:55;101365.53;;;23.45
42673;BMP280;28284;46.514;30.724;2023-05-07T06:31:21;101376.00;;;23.50
42673;BMP280;28284;46.514;30.724;2023-05-07T06:33:46;101381.22;;;23.48
42673;BMP280;28284;46.514;30.724;2023-05-07T06:36:12;101378.69;;;23.62
42673;BMP280;28284;46.514;30.724;2023-05-07T06:38:37;101384.38;;;23.80
42673;BMP280;28284;46.514;30.724;2023-05-07T06:41:02;101382.88;;;23.67
42673;BMP280;28284;46.514;30.724;2023-05-07T06:43:27;101380.06;;;23.58
42673;BMP280;28284;46.514;30.724;2023-05-07T06:45:53;101380.94;;;23.34
42673;BMP280;28284;46.514;30.724;2023-05-07T06:48:18;101385.72;;;23.21
42673;BMP280;28284;46.514;30.724;2023-05-07T06:50:43;101373.28;;;23.38
42673;BMP280;28284;46.514;30.724;2023-05-07T06:53:09;101368.47;;;23.50
42673;BMP280;28284;46.514;30.724;2023-05-07T06:55:34;101385.19;;;23.47
42673;BMP280;28284;46.514;30.724;2023-05-07T06:57:59;101382.91;;;23.33
42673;BMP280;28284;46.514;30.724;2023-05-07T07:00:29;101373.69;;;23.36
42673;BMP280;28284;46.514;30.724;2023-05-07T07:02:54;101366.97;;;23.37
42673;BMP280;28284;46.514;30.724;2023-05-07T07:05:21;101373.06;;;23.32
42673;BMP280;28284;46.514;30.724;2023-05-07T07:07:47;101377.66;;;22.89
42673;BMP280;28284;46.514;30.724;2023-05-07T07:10:23;101377.72;;;22.52
42673;BMP280;28284;46.514;30.724;2023-05-07T07:12:49;101383.22;;;22.39
42673;BMP280;28284;46.514;30.724;2023-05-07T07:15:14;101362.44;;;22.35
42673;BMP280;28284;46.514;30.724;2023-05-07T07:17:40;101373.03;;;22.24
42673;BMP280;28284;46.514;30.724;2023-05-07T07:20:05;101360.56;;;22.32
42673;BMP280;28284;46.514;30.724;2023-05-07T07:22:31;101367.63;;;22.45
42673;BMP280;28284;46.514;30.724;2023-05-07T07:24:56;101366.25;;;22.41
42673;BMP280;28284;46.514;30.724;2023-05-07T07:27:21;101379.03;;;22.47
42673;BMP280;28284;46.514;30.724;2023-05-07T07:29:46;101363.13;;;22.51
42673;BMP280;28284;46.514;30.724;2023-05-07T07:32:12;101365.56;;;22.62
42673;BMP280;28284;46.514;30.724;2023-05-07T07:34:37;101371.41;;;22.51
42673;BMP280;28284;46.514;30.724;2023-05-07T07:37:02;101368.66;;;22.51
42673;BMP280;28284;46.514;30.724;2023-05-07T07:39:31;101367.88;;;22.51
42673;BMP280;28284;46.514;30.724;2023-05-07T07:41:57;101362.69;;;22.40
42673;BMP280;28284;46.514;30.724;2023-05-07T07:44:22;101360.16;;;22.46
42673;BMP280;28284;46.514;30.724;2023-05-07T07:46:47;101371.91;;;22.34
42673;BMP280;28284;46.514;30.724;2023-05-07T07:49:12;101363.31;;;22.20
42673;BMP280;28284;46.514;30.724;2023-05-07T07:51:38;101350.81;;;22.03
42673;BMP280;28284;46.514;30.724;2023-05-07T07:54:03;101349.88;;;21.93
42673;BMP280;28284;46.514;30.724;2023-05-07T07:56:29;101351.78;;;21.96
42673;BMP280;28284;46.514;30.724;2023-05-07T07:58:54;101357.97;;;21.88
42673;BMP280;28284;46.514;30.724;2023-05-07T08:01:20;101361.41;;;22.04
42673;BMP280;28284;46.514;30.724;2023-05-07T08:03:45;101356.91;;;22.10
42673;BMP280;28284;46.514;30.724;2023-05-07T08:06:10;101349.63;;;22.04
42673;BMP280;28284;46.514;30.724;2023-05-07T08:08:35;101350.56;;;21.97
42673;BMP280;28284;46.514;30.724;2023-05-07T08:11:01;101352.50;;;22.00
42673;BMP280;28284;46.514;30.724;2023-05-07T08:13:26;101331.59;;;21.99
42673;BMP280;28284;46.514;30.724;2023-05-07T08:15:51;101334.47;;;21.96
42673;BMP280;28284;46.514;30.724;2023-05-07T08:18:17;101330.44;;;22.00
42673;BMP280;28284;46.514;30.724;2023-05-07T08:20:42;101326.25;;;22.21
42673;BMP280;28284;46.514;30.724;2023-05-07T08:23:08;101328.00;;;22.39
42673;BMP280;28284;46.514;30.724;2023-05-07T08:25:33;101327.13;;;22.55
42673;BMP280;28284;46.514;30.724;2023-05-07T08:27:59;101334.63;;;22.67
42673;BMP280;28284;46.514;30.724;2023-05-07T08:30:24;101327.22;;;22.64
42673;BMP280;28284;46.514;30.724;2023-05-07T08:32:50;101325.75;;;22.84
42673;BMP280;28284;46.514;30.724;2023-05-07T08:35:15;101331.72;;;22.83
42673;BMP280;28284;46.514;30.724;2023-05-07T08:37:40;101320.94;;;22.76
42673;BMP280;28284;46.514;30.724;2023-05-07T08:40:06;101316.97;;;22.77
42673;BMP280;28284;46.514;30.724;2023-05-07T08:42:33;101330.13;;;23.06
42673;BMP280;28284;46.514;30.724;2023-05-07T08:45:00;101315.16;;;22.95
42673;BMP280;28284;46.514;30.724;2023-05-07T08:47:29;101333.88;;;23.12
42673;BMP280;28284;46.514;30.724;2023-05-07T08:49:57;101322.50;;;23.10
42673;BMP280;28284;46.514;30.724;2023-05-07T08:52:23;101326.31;;;23.25
42673;BMP280;28284;46.514;30.724;2023-05-07T08:54:48;101320.91;;;23.43
42673;BMP280;28284;46.514;30.724;2023-05-07T08:57:13;101326.22;;;23.50
42673;BMP280;28284;46.514;30.724;2023-05-07T08:59:39;101314.69;;;23.51
42673;BMP280;28284;46.514;30.724;2023-05-07T09:02:05;101321.59;;;23.47
42673;BMP280;28284;46.514;30.724;2023-05-07T09:04:32;101320.25;;;23.39
42673;BMP280;28284;46.514;30.724;2023-05-07T09:06:57;101325.22;;;23.44
42673;BMP280;28284;46.514;30.724;2023-05-07T09:09:28;101321.28;;;23.66
42673;BMP280;28284;46.514;30.724;2023-05-07T09:11:57;101326.47;;;23.86
42673;BMP280;28284;46.514;30.724;2023-05-07T09:14:24;101336.06;;;24.03
42673;BMP280;28284;46.514;30.724;2023-05-07T09:16:51;101324.22;;;24.02
42673;BMP280;28284;46.514;30.724;2023-05-07T09:19:21;101326.44;;;24.16
42673;BMP280;28284;46.514;30.724;2023-05-07T09:21:47;101332.19;;;24.21
42673;BMP280;28284;46.514;30.724;2023-05-07T09:24:14;101326.03;;;24.17
42673;BMP280;28284;46.514;30.724;2023-05-07T09:26:40;101333.34;;;24.11
42673;BMP280;28284;46.514;30.724;2023-05-07T09:29:05;101328.25;;;24.01
42673;BMP280;28284;46.514;30.724;2023-05-07T09:31:31;101326.34;;;23.98
42673;BMP280;28284;46.514;30.724;2023-05-07T09:33:57;101336.84;;;24.03
42673;BMP280;28284;46.514;30.724;2023-05-07T09:36:22;101336.06;;;24.03
42673;BMP280;28284;46.514;30.724;2023-05-07T09:38:47;101330.63;;;23.90
42673;BMP280;28284;46.514;30.724;2023-05-07T09:41:14;101331.66;;;23.62
42673;BMP280;28284;46.514;30.724;2023-05-07T09:43:40;101335.22;;;23.42
42673;BMP280;28284;46.514;30.724;2023-05-07T09:46:06;101333.38;;;23.26
42673;BMP280;28284;46.514;30.724;2023-05-07T09:48:34;101327.47;;;23.15
42673;BMP280;28284;46.514;30.724;2023-05-07T09:51:01;101319.09;;;23.06
42673;BMP280;28284;46.514;30.724;2023-05-07T09:53:27;101315.72;;;22.90
42673;BMP280;28284;46.514;30.724;2023-05-07T09:55:53;101316.97;;;22.77
42673;BMP280;28284;46.514;30.724;2023-05-07T09:58:19;101312.75;;;22.72
42673;BMP280;28284;46.514;30.724;2023-05-07T10:00:45;101307.44;;;22.53
42673;BMP280;28284;46.514;30.724;2023-05-07T10:03:10;101312.75;;;22.35
42673;BMP280;28284;46.514;30.724;2023-05-07T10:05:36;101302.38;;;22.27
42673;BMP280;28284;46.514;30.724;2023-05-07T10:08:02;101305.47;;;22.16
42673;BMP280;28284;46.514;30.724;2023-05-07T10:10:27;101304.00;;;21.99
42673;BMP280;28284;46.514;30.724;2023-05-07T10:12:54;101291.50;;;21.82
42673;BMP280;28284;46.514;30.724;2023-05-07T10:15:19;101297.25;;;21.76
42673;BMP280;28284;46.514;30.724;2023-05-07T10:17:44;101288.34;;;21.56
42673;BMP280;28284;46.514;30.724;2023-05-07T10:20:10;101290.81;;;21.38
42673;BMP280;28284;46.514;30.724;2023-05-07T10:22:40;101293.78;;;21.31
42673;BMP280;28284;46.514;30.724;2023-05-07T10:25:09;101290.38;;;21.11
42673;BMP280;28284;46.514;30.724;2023-05-07T10:27:37;101291.94;;;20.96
42673;BMP280;28284;46.514;30.724;2023-05-07T10:35:01;101297.16;;;20.59
42673;BMP280;28284;46.514;30.724;2023-05-07T10:37:27;101287.59;;;20.48
42673;BMP280;28284;46.514;30.724;2023-05-07T10:39:53;101293.94;;;20.29
42673;BMP280;28284;46.514;30.724;2023-05-07T10:42:18;101283.38;;;20.08
42673;BMP280;28284;46.514;30.724;2023-05-07T10:44:43;101296.97;;;19.99
42673;BMP280;28284;46.514;30.724;2023-05-07T10:47:09;101287.81;;;19.86
42673;BMP280;28284;46.514;30.724;2023-05-07T10:50:20;101286.44;;;19.75
42673;BMP280;28284;46.514;30.724;2023-05-07T10:52:21;101286.66;;;19.64
42673;BMP280;28284;46.514;30.724;2023-05-07T10:54:48;101283.59;;;19.59
42673;BMP280;28284;46.514;30.724;2023-05-07T10:57:34;101276.63;;;19.54
42673;BMP280;28284;46.514;30.724;2023-05-07T11:00:03;101283.34;;;19.53
42673;BMP280;28284;46.514;30.724;2023-05-07T11:05:22;101278.25;;;19.52
42673;BMP280;28284;46.514;30.724;2023-05-07T11:07:57;101279.94;;;19.46
42673;BMP280;28284;46.514;30.724;2023-05-07T11:10:23;101272.50;;;19.46
42673;BMP280;28284;46.514;30.724;2023-05-07T11:12:49;101281.84;;;19.49
42673;BMP280;28284;46.514;30.724;2023-05-07T11:15:15;101276.63;;;19.54
42673;BMP280;28284;46.514;30.724;2023-05-07T11:18:02;101272.38;;;19.53
42673;BMP280;28284;46.514;30.724;2023-05-07T11:21:08;101265.78;;;19.47
42673;BMP280;28284;46.514;30.724;2023-05-07T11:26:05;101261.81;;;19.29
42673;BMP280;28284;46.514;30.724;2023-05-07T11:28:31;101261.22;;;19.18
42673;BMP280;28284;46.514;30.724;2023-05-07T11:31:01;101214.63;;;18.92
42673;BMP280;28284;46.514;30.724;2023-05-07T11:33:27;101248.78;;;19.14
42673;BMP280;28284;46.514;30.724;2023-05-07T11:35:55;101249.00;;;19.23
42673;BMP280;28284;46.514;30.724;2023-05-07T11:38:21;101252.56;;;19.20
42673;BMP280;28284;46.514;30.724;2023-05-07T11:40:52;101255.72;;;19.18
42673;BMP280;28284;46.514;30.724;2023-05-07T11:43:18;101264.75;;;19.19
42673;BMP280;28284;46.514;30.724;2023-05-07T11:45:47;101260.53;;;19.14
42673;BMP280;28284;46.514;30.724;2023-05-07T11:48:13;101254.59;;;19.16
42673;BMP280;28284;46.514;30.724;2023-05-07T11:50:59;101259.59;;;19.21
42673;BMP280;28284;46.514;30.724;2023-05-07T11:53:24;101260.31;;;19.25
42673;BMP280;28284;46.514;30.724;2023-05-07T11:55:54;101257.88;;;19.30
42673;BMP280;28284;46.514;30.724;2023-05-07T11:58:20;101256.59;;;19.35
42673;BMP280;28284;46.514;30.724;2023-05-07T12:00:49;101258.09;;;19.39
42673;BMP280;28284;46.514;30.724;2023-05-07T12:03:15;101253.25;;;19.46
42673;BMP280;28284;46.514;30.724;2023-05-07T12:05:40;101248.47;;;19.50
42673;BMP280;28284;46.514;30.724;2023-05-07T12:08:06;101243.56;;;19.58
42673;BMP280;28284;46.514;30.724;2023-05-07T12:10:32;101247.00;;;19.65
42673;BMP280;28284;46.514;30.724;2023-05-07T12:12:57;101252.69;;;19.74
42673;BMP280;28284;46.514;30.724;2023-05-07T12:15:22;101250.22;;;19.80
42673;BMP280;28284;46.514;30.724;2023-05-07T12:17:48;101253.66;;;19.84
42673;BMP280;28284;46.514;30.724;2023-05-07T12:20:13;101245.91;;;19.79
42673;BMP280;28284;46.514;30.724;2023-05-07T12:22:39;101251.47;;;19.75
42673;BMP280;28284;46.514;30.724;2023-05-07T12:25:05;101246.06;;;19.72
42673;BMP280;28284;46.514;30.724;2023-05-07T12:27:31;101234.78;;;19.66
42673;BMP280;28284;46.514;30.724;2023-05-07T12:29:57;101236.69;;;19.69
42673;BMP280;28284;46.514;30.724;2023-05-07T12:32:23;101241.75;;;19.71
42673;BMP280;28284;46.514;30.724;2023-05-07T12:34:51;101232.69;;;19.74
42673;BMP280;28284;46.514;30.724;2023-05-07T12:37:16;101235.34;;;19.77
42673;BMP280;28284;46.514;30.724;2023-05-07T12:39:48;101230.53;;;19.81
42673;BMP280;28284;46.514;30.724;2023-05-07T12:42:19;101226.16;;;19.84
42673;BMP280;28284;46.514;30.724;2023-05-07T12:44:45;101225.41;;;19.83
42673;BMP280;28284;46.514;30.724;2023-05-07T12:47:10;101230.06;;;19.86
42673;BMP280;28284;46.514;30.724;2023-05-07T12:49:37;101233.59;;;19.87
42673;BMP280;28284;46.514;30.724;2023-05-07T12:52:03;101228.84;;;19.87
42673;BMP280;28284;46.514;30.724;2023-05-07T12:54:29;101220.28;;;19.85
42673;BMP280;28284;46.514;30.724;2023-05-07T12:57:05;101218.72;;;19.84
42673;BMP280;28284;46.514;30.724;2023-05-07T12:59:31;101213.22;;;19.84
42673;BMP280;28284;46.514;30.724;2023-05-07T13:01:57;101218.28;;;19.86
42673;BMP280;28284;46.514;30.724;2023-05-07T13:04:24;101215.78;;;19.91
42673;BMP280;28284;46.514;30.724;2023-05-07T13:06:49;101210.22;;;19.95
42673;BMP280;28284;46.514;30.724;2023-05-07T13:09:15;101213.78;;;19.95
42673;BMP280;28284;46.514;30.724;2023-05-07T13:11:40;101217.72;;;19.94
42673;BMP280;28284;46.514;30.724;2023-05-07T13:14:05;101207.47;;;19.95
42673;BMP280;28284;46.514;30.724;2023-05-07T13:16:31;101206.72;;;19.94
42673;BMP280;28284;46.514;30.724;2023-05-07T13:18:56;101203.16;;;19.94
42673;BMP280;28284;46.514;30.724;2023-05-07T13:21:21;101206.72;;;19.94
42673;BMP280;28284;46.514;30.724;2023-05-07T13:23:46;101202.78;;;19.95
42673;BMP280;28284;46.514;30.724;2023-05-07T13:26:12;101216.53;;;19.95
42673;BMP280;28284;46.514;30.724;2023-05-07T13:28:37;101211.53;;;19.90
42673;BMP280;28284;46.514;30.724;2023-05-07T13:31:02;101197.47;;;19.85
42673;BMP280;28284;46.514;30.724;2023-05-07T13:33:27;101203.84;;;19.82
42673;BMP280;28284;46.514;30.724;2023-05-07T13:35:53;101205.41;;;19.83
42673;BMP280;28284;46.514;30.724;2023-05-07T13:38:18;101210.53;;;19.81
42673;BMP280;28284;46.514;30.724;2023-05-07T13:40:43;101207.00;;;19.80
42673;BMP280;28284;46.514;30.724;2023-05-07T13:43:08;101201.59;;;19.77
42673;BMP280;28284;46.514;30.724;2023-05-07T13:45:34;101207.50;;;19.75
42673;BMP280;28284;46.514;30.724;2023-05-07T13:47:59;101204.41;;;19.73